createdAt,value
2022-10-15T00:00:06.290Z,14.80
2022-10-15T00:02:33.975Z,14.70
2022-10-15T00:05:01.704Z,14.80
2022-10-15T00:07:30.718Z,14.80
2022-10-15T00:09:58.389Z,14.80
2022-10-15T00:12:26.080Z,14.90
2022-10-15T00:14:53.739Z,14.90
2022-10-15T00:17:21.652Z,14.90
2022-10-15T00:19:49.682Z,14.80
2022-10-15T00:22:17.365Z,14.90
2022-10-15T00:24:46.391Z,14.90
2022-10-15T00:27:14.272Z,14.90
2022-10-15T00:29:42.030Z,14.90
2022-10-15T00:32:09.707Z,14.90
2022-10-15T00:34:37.392Z,15.00
2022-10-15T00:37:05.062Z,14.90
2022-10-15T00:39:32.842Z,14.90
2022-10-15T00:42:01.873Z,15.00
2022-10-15T00:44:48.248Z,15.00
2022-10-15T00:47:17.745Z,14.90
2022-10-15T00:49:47.806Z,15.00
2022-10-15T00:52:17.159Z,15.00
2022-10-15T00:54:46.040Z,15.00
2022-10-15T00:57:15.365Z,15.00
2022-10-15T00:59:45.426Z,15.00
2022-10-15T01:02:13.814Z,15.10
2022-10-15T01:04:41.939Z,15.20
2022-10-15T01:07:09.706Z,15.20
2022-10-15T01:09:37.506Z,15.20
2022-10-15T01:12:07.063Z,15.20
2022-10-15T01:14:37.576Z,15.30
2022-10-15T01:17:08.417Z,15.20
2022-10-15T01:19:50.794Z,15.30
2022-10-15T01:22:25.348Z,15.30
2022-10-15T01:24:59.878Z,15.30
2022-10-15T01:27:35.540Z,15.40
2022-10-15T01:30:14.661Z,15.40
2022-10-15T01:32:45.655Z,15.40
2022-10-15T01:35:18.378Z,15.50
2022-10-15T01:37:51.590Z,15.40
2022-10-15T01:40:21.869Z,15.50
2022-10-15T01:42:52.568Z,15.50
2022-10-15T01:45:25.309Z,15.40
2022-10-15T01:47:54.331Z,15.40
2022-10-15T01:50:24.043Z,15.40
2022-10-15T01:52:52.153Z,15.30
2022-10-15T01:55:21.550Z,15.40
2022-10-15T01:57:49.972Z,15.40
2022-10-15T02:00:17.830Z,15.30
2022-10-15T02:02:46.894Z,15.40
2022-10-15T02:05:17.197Z,15.40
2022-10-15T02:07:48.427Z,15.30
2022-10-15T02:10:19.430Z,15.40
2022-10-15T02:12:53.158Z,15.40
2022-10-15T02:15:26.683Z,15.40
2022-10-15T02:18:02.214Z,15.40
2022-10-15T02:20:31.548Z,15.50
2022-10-15T02:23:03.788Z,15.50
2022-10-15T02:25:31.902Z,15.50
2022-10-15T02:28:00.752Z,15.50
2022-10-15T02:30:29.119Z,15.50
2022-10-15T02:32:59.377Z,15.50
2022-10-15T02:35:28.012Z,15.50
2022-10-15T02:37:57.043Z,15.50
2022-10-15T02:40:27.723Z,15.50
2022-10-15T02:42:56.186Z,15.50
2022-10-15T02:45:24.668Z,15.50
2022-10-15T02:47:52.431Z,15.50
2022-10-15T02:50:21.480Z,15.50
2022-10-15T02:52:49.155Z,15.50
2022-10-15T02:55:17.460Z,15.50
2022-10-15T02:57:45.133Z,15.50
2022-10-15T03:00:13.376Z,15.50
2022-10-15T03:02:41.062Z,15.50
2022-10-15T03:05:09.360Z,15.50
2022-10-15T03:07:38.675Z,15.50
2022-10-15T03:10:07.239Z,15.50
2022-10-15T03:12:34.965Z,15.50
2022-10-15T03:15:02.741Z,15.50
2022-10-15T03:17:30.424Z,15.60
2022-10-15T03:19:58.108Z,15.60
2022-10-15T03:22:25.858Z,15.50
2022-10-15T03:24:54.899Z,15.50
2022-10-15T03:27:23.004Z,15.50
2022-10-15T03:29:50.957Z,15.40
2022-10-15T03:32:18.726Z,15.50
2022-10-15T03:34:46.397Z,15.40
2022-10-15T03:37:14.095Z,15.40
2022-10-15T03:39:42.158Z,15.40
2022-10-15T03:42:11.154Z,15.40
2022-10-15T03:44:38.839Z,15.50
2022-10-15T03:47:06.542Z,15.40
2022-10-15T03:49:34.293Z,15.40
2022-10-15T03:52:01.976Z,15.40
2022-10-15T03:54:29.696Z,15.40
2022-10-15T03:56:57.424Z,15.40
2022-10-15T03:59:26.575Z,15.40
2022-10-15T04:01:54.327Z,15.30
2022-10-15T04:04:22.122Z,15.30
2022-10-15T04:06:49.795Z,15.40
2022-10-15T04:09:17.480Z,15.30
2022-10-15T04:11:45.155Z,15.30
2022-10-15T04:14:12.838Z,15.30
2022-10-15T04:16:41.887Z,15.20
2022-10-15T04:19:11.245Z,15.30
2022-10-15T04:21:39.187Z,15.30
2022-10-15T04:24:07.023Z,15.20
2022-10-15T04:26:34.875Z,15.20
2022-10-15T04:29:02.682Z,15.20
2022-10-15T04:31:30.852Z,15.10
2022-10-15T04:33:59.890Z,15.10
2022-10-15T04:36:27.563Z,15.10
2022-10-15T04:38:55.310Z,15.00
2022-10-15T04:41:23.016Z,15.10
2022-10-15T04:43:50.691Z,15.00
2022-10-15T04:46:18.779Z,15.00
2022-10-15T04:48:46.456Z,15.00
2022-10-15T04:51:17.052Z,15.00
2022-10-15T04:53:44.896Z,15.10
2022-10-15T04:56:13.723Z,15.10
2022-10-15T04:58:41.693Z,15.10
2022-10-15T05:01:12.054Z,15.20
2022-10-15T05:03:43.977Z,15.20
2022-10-15T05:06:14.021Z,15.10
2022-10-15T05:08:43.376Z,15.20
2022-10-15T05:11:12.046Z,15.20
2022-10-15T05:13:39.747Z,15.10
2022-10-15T05:16:12.321Z,15.20
2022-10-15T05:18:40.066Z,15.20
2022-10-15T05:21:08.228Z,15.20
2022-10-15T05:23:36.738Z,15.20
2022-10-15T05:26:06.956Z,15.20
2022-10-15T05:28:34.742Z,15.10
2022-10-15T05:31:06.170Z,15.00
2022-10-15T05:33:33.979Z,14.90
2022-10-15T05:36:09.399Z,14.90
2022-10-15T05:38:37.178Z,14.90
2022-10-15T05:41:06.359Z,15.00
2022-10-15T05:43:36.163Z,15.00
2022-10-15T05:46:06.536Z,15.00
2022-10-15T05:48:34.655Z,14.90
2022-10-15T05:51:02.970Z,14.90
2022-10-15T05:53:30.648Z,14.80
2022-10-15T05:55:58.869Z,14.70
2022-10-15T05:58:32.087Z,14.70
2022-10-15T06:01:04.321Z,14.80
2022-10-15T06:03:31.995Z,14.80
2022-10-15T06:05:59.666Z,14.70
2022-10-15T06:08:28.816Z,14.70
2022-10-15T06:10:58.730Z,14.70
2022-10-15T06:13:27.801Z,14.70
2022-10-15T06:15:55.482Z,14.60
2022-10-15T06:18:23.145Z,14.70
2022-10-15T06:20:52.123Z,14.60
2022-10-15T06:23:20.301Z,14.70
2022-10-15T06:25:47.965Z,14.70
2022-10-15T06:28:15.639Z,14.70
2022-10-15T06:30:45.072Z,14.70
2022-10-15T06:33:12.914Z,14.70
2022-10-15T06:35:41.276Z,14.70
2022-10-15T06:38:08.994Z,14.60
2022-10-15T06:40:38.058Z,14.60
2022-10-15T06:43:07.864Z,14.60
2022-10-15T06:45:36.504Z,14.60
2022-10-15T06:48:06.308Z,14.70
2022-10-15T06:50:34.557Z,14.70
2022-10-15T06:53:02.453Z,14.80
2022-10-15T06:55:30.130Z,14.80
2022-10-15T06:57:57.836Z,14.80
2022-10-15T07:00:26.108Z,14.80
2022-10-15T07:02:54.143Z,14.90
2022-10-15T07:05:23.351Z,14.90
2022-10-15T07:07:54.085Z,14.90
2022-10-15T07:10:21.759Z,14.90
2022-10-15T07:12:49.485Z,14.90
2022-10-15T07:15:17.598Z,15.00
2022-10-15T07:17:47.798Z,15.00
2022-10-15T07:20:19.990Z,15.00
2022-10-15T07:22:50.840Z,15.00
2022-10-15T07:25:18.632Z,15.10
2022-10-15T07:27:46.280Z,15.10
2022-10-15T07:30:14.016Z,15.00
2022-10-15T07:32:44.445Z,15.10
2022-10-15T07:35:14.258Z,15.10
2022-10-15T07:37:41.972Z,15.20
2022-10-15T07:40:11.866Z,15.20
2022-10-15T07:42:40.912Z,15.20
2022-10-15T07:45:09.040Z,15.20
2022-10-15T07:47:36.725Z,15.20
2022-10-15T07:50:04.442Z,15.20
2022-10-15T07:52:32.142Z,15.20
2022-10-15T07:54:59.840Z,15.20
2022-10-15T07:57:28.915Z,15.10
2022-10-15T07:59:56.570Z,15.10
2022-10-15T08:02:24.532Z,15.00
2022-10-15T08:04:52.726Z,15.10
2022-10-15T08:07:20.439Z,15.20
2022-10-15T08:09:48.846Z,15.20
2022-10-15T08:12:16.859Z,15.20
2022-10-15T08:14:45.915Z,15.30
2022-10-15T08:17:13.593Z,15.40
2022-10-15T08:19:41.395Z,15.30
2022-10-15T08:22:09.208Z,15.40
2022-10-15T08:24:36.971Z,15.40
2022-10-15T08:27:04.718Z,15.50
2022-10-15T08:29:32.566Z,15.60
2022-10-15T08:32:01.599Z,15.70
2022-10-15T08:34:29.286Z,15.80
2022-10-15T08:36:56.966Z,15.90
2022-10-15T08:39:24.660Z,15.90
2022-10-15T08:41:54.125Z,15.90
2022-10-15T08:44:24.449Z,15.90
2022-10-15T08:46:53.690Z,15.90
2022-10-15T08:49:25.650Z,16.00
2022-10-15T08:51:55.549Z,16.00
2022-10-15T08:54:23.699Z,16.00
2022-10-15T08:56:54.657Z,16.00
2022-10-15T08:59:28.092Z,16.00
2022-10-15T09:01:57.626Z,16.00
2022-10-15T09:04:31.783Z,16.10
2022-10-15T09:07:03.686Z,16.10
2022-10-15T09:09:35.297Z,16.20
2022-10-15T09:12:10.258Z,16.10
2022-10-15T09:14:39.857Z,16.20
2022-10-15T09:17:21.726Z,16.20
2022-10-15T09:19:52.602Z,16.40
2022-10-15T09:22:22.876Z,16.50
2022-10-15T09:24:50.580Z,16.50
2022-10-15T09:27:24.820Z,16.60
2022-10-15T09:29:59.161Z,16.70
2022-10-15T09:32:31.470Z,16.70
2022-10-15T09:35:02.670Z,16.80
2022-10-15T09:37:33.788Z,16.80
2022-10-15T09:40:11.164Z,16.70
2022-10-15T09:42:39.895Z,16.80
2022-10-15T09:45:10.723Z,16.80
2022-10-15T09:47:40.266Z,16.90
2022-10-15T09:50:10.443Z,17.00
2022-10-15T09:52:46.744Z,17.10
2022-10-15T09:55:19.568Z,17.20
2022-10-15T09:57:49.726Z,17.30
2022-10-15T10:00:17.592Z,17.30
2022-10-15T10:02:45.253Z,17.30
2022-10-15T10:05:21.535Z,17.30
2022-10-15T10:07:49.166Z,17.40
2022-10-15T10:10:24.626Z,17.50
2022-10-15T10:12:52.553Z,17.40
2022-10-15T10:15:32.115Z,17.50
2022-10-15T10:17:59.855Z,17.50
2022-10-15T10:20:29.258Z,17.40
2022-10-15T10:22:58.026Z,17.40
2022-10-15T10:25:29.631Z,17.40
2022-10-15T10:27:58.376Z,17.30
2022-10-15T10:30:26.223Z,17.30
2022-10-15T10:32:57.016Z,17.30
2022-10-15T10:35:26.414Z,17.20
2022-10-15T10:37:55.687Z,17.10
2022-10-15T10:40:25.816Z,17.10
2022-10-15T10:43:10.487Z,17.00
2022-10-15T10:45:38.223Z,17.00
2022-10-15T10:48:26.976Z,16.90
2022-10-15T10:51:09.069Z,16.80
2022-10-15T10:53:42.518Z,16.80
2022-10-15T10:56:13.577Z,16.80
2022-10-15T10:58:41.247Z,16.70
2022-10-15T11:01:11.745Z,16.70
2022-10-15T11:03:40.452Z,16.70
2022-10-15T11:06:19.597Z,16.80
2022-10-15T11:08:55.440Z,16.90
2022-10-15T11:11:26.131Z,17.10
2022-10-15T11:13:58.966Z,17.30
2022-10-15T11:16:33.942Z,17.90
2022-10-15T11:19:18.709Z,18.70
2022-10-15T11:21:52.958Z,19.60
2022-10-15T11:24:23.723Z,20.10
2022-10-15T11:27:10.495Z,20.00
2022-10-15T11:29:42.872Z,19.80
2022-10-15T11:32:18.048Z,19.60
2022-10-15T11:34:53.235Z,19.20
2022-10-15T11:37:30.630Z,18.80
2022-10-15T11:40:07.135Z,18.60
2022-10-15T11:42:38.307Z,18.30
2022-10-15T11:45:24.575Z,18.10
2022-10-15T11:47:56.900Z,17.80
2022-10-15T11:50:28.006Z,17.70
2022-10-15T11:53:02.250Z,17.60
2022-10-15T11:55:34.032Z,17.60
2022-10-15T11:58:05.392Z,17.50
2022-10-15T12:00:34.669Z,17.40
2022-10-15T12:03:05.114Z,17.40
2022-10-15T12:05:35.137Z,17.30
2022-10-15T12:10:39.489Z,17.30
2022-10-15T12:13:09.629Z,17.20
2022-10-15T12:15:40.764Z,17.30
2022-10-15T12:18:14.825Z,17.20
2022-10-15T12:20:43.211Z,17.20
2022-10-15T12:23:23.633Z,17.20
2022-10-15T12:25:52.927Z,17.20
2022-10-15T12:28:22.441Z,17.20
2022-10-15T12:31:00.595Z,17.10
2022-10-15T12:33:36.493Z,17.20
2022-10-15T12:36:09.291Z,17.20
2022-10-15T12:38:39.410Z,17.30
2022-10-15T12:41:09.781Z,17.30
2022-10-15T12:43:39.452Z,17.30
2022-10-15T12:46:08.439Z,17.40
2022-10-15T12:48:37.176Z,17.30
2022-10-15T12:51:38.047Z,17.30
2022-10-15T12:54:24.591Z,17.30
2022-10-15T12:56:53.692Z,17.30
2022-10-15T12:59:31.851Z,17.30
2022-10-15T13:01:59.623Z,17.30
2022-10-15T13:04:37.739Z,17.30
2022-10-15T13:07:05.882Z,17.40
2022-10-15T13:09:33.580Z,17.40
2022-10-15T13:12:02.933Z,17.40
2022-10-15T13:14:36.063Z,17.40
2022-10-15T13:17:05.566Z,17.50
2022-10-15T13:19:35.589Z,17.50
2022-10-15T13:22:04.260Z,17.50
2022-10-15T13:24:40.013Z,17.60
2022-10-15T13:27:16.879Z,17.60
2022-10-15T13:29:54.196Z,17.60
2022-10-15T13:32:23.013Z,17.70
2022-10-15T13:34:51.239Z,17.70
2022-10-15T13:37:20.330Z,17.70
2022-10-15T13:39:50.985Z,17.70
2022-10-15T13:42:22.102Z,17.70
2022-10-15T13:45:01.101Z,17.60
2022-10-15T13:47:30.672Z,17.60
2022-10-15T13:50:17.077Z,17.70
2022-10-15T13:52:46.857Z,17.70
2022-10-15T13:55:18.130Z,17.80
2022-10-15T13:57:47.941Z,17.80
2022-10-15T14:00:24.459Z,17.80
2022-10-15T14:03:14.484Z,17.80
2022-10-15T14:05:42.328Z,17.60
2022-10-15T14:08:16.295Z,17.60
2022-10-15T14:10:44.039Z,17.60
2022-10-15T14:13:13.339Z,17.60
2022-10-15T14:15:45.911Z,17.60
2022-10-15T14:18:14.687Z,17.50
2022-10-15T14:20:46.039Z,17.50
2022-10-15T14:23:18.085Z,17.50
2022-10-15T14:25:46.140Z,17.50
2022-10-15T14:28:20.211Z,17.60
2022-10-15T14:30:48.105Z,17.60
2022-10-15T14:33:40.257Z,17.60
2022-10-15T14:36:09.504Z,17.60
2022-10-15T14:38:37.240Z,17.60
2022-10-15T14:41:09.249Z,17.60
2022-10-15T14:43:38.823Z,17.60
2022-10-15T14:46:08.289Z,17.60
2022-10-15T14:48:37.328Z,17.60
2022-10-15T14:51:06.359Z,17.60
2022-10-15T14:53:36.794Z,17.60
2022-10-15T14:56:05.482Z,17.60
2022-10-15T14:58:33.402Z,17.60
2022-10-15T15:01:03.117Z,17.60
2022-10-15T15:03:32.019Z,17.70
2022-10-15T15:05:59.766Z,17.70
2022-10-15T15:08:27.691Z,17.70
2022-10-15T15:10:56.844Z,17.80
2022-10-15T15:13:25.565Z,17.80
2022-10-15T15:15:53.374Z,17.70
2022-10-15T15:18:22.885Z,17.70
2022-10-15T15:20:51.621Z,17.70
2022-10-15T15:23:20.513Z,17.70
2022-10-15T15:25:49.763Z,17.70
2022-10-15T15:28:20.375Z,17.70
2022-10-15T15:30:51.387Z,17.70
2022-10-15T15:33:19.065Z,17.70
2022-10-15T15:35:50.919Z,17.70
2022-10-15T15:38:19.480Z,17.70
2022-10-15T15:40:47.262Z,17.70
2022-10-15T15:43:16.010Z,17.60
2022-10-15T15:45:43.920Z,17.70
2022-10-15T15:48:11.702Z,17.60
2022-10-15T15:50:39.514Z,17.60
2022-10-15T15:53:08.576Z,17.60
2022-10-15T15:55:36.276Z,17.60
2022-10-15T15:58:03.954Z,17.60
2022-10-15T16:00:31.831Z,17.50
2022-10-15T16:02:59.498Z,17.50
2022-10-15T16:05:27.230Z,17.50
2022-10-15T16:07:54.965Z,17.40
2022-10-15T16:10:24.206Z,17.40
2022-10-15T16:12:52.307Z,17.40
2022-10-15T16:15:20.092Z,17.40
2022-10-15T16:17:47.765Z,17.40
2022-10-15T16:20:15.457Z,17.40
2022-10-15T16:22:43.274Z,17.40
2022-10-15T16:25:11.165Z,17.40
2022-10-15T16:27:40.145Z,17.30
2022-10-15T16:30:08.177Z,17.30
2022-10-15T16:32:36.038Z,17.30
2022-10-15T16:35:03.672Z,17.30
2022-10-15T16:37:31.336Z,17.20
2022-10-15T16:39:59.038Z,17.20
2022-10-15T16:42:26.714Z,17.10
2022-10-15T16:44:55.761Z,17.10
2022-10-15T16:47:23.701Z,17.00
2022-10-15T16:49:51.629Z,17.00
2022-10-15T16:52:19.330Z,17.00
2022-10-15T16:54:47.445Z,17.00
2022-10-15T16:57:15.122Z,16.90
2022-10-15T16:59:42.849Z,16.90
2022-10-15T17:02:11.959Z,16.90
2022-10-15T17:04:39.810Z,17.00
2022-10-15T17:07:07.489Z,17.00
2022-10-15T17:09:35.368Z,16.90
2022-10-15T17:12:03.069Z,16.90
2022-10-15T17:14:30.828Z,16.90
2022-10-15T17:16:58.515Z,16.90
2022-10-15T17:19:30.582Z,16.80
2022-10-15T17:22:01.165Z,16.80
2022-10-15T17:24:28.871Z,16.80
2022-10-15T17:26:57.795Z,16.80
2022-10-15T17:29:29.069Z,16.80
2022-10-15T17:32:01.308Z,16.80
2022-10-15T17:34:30.444Z,16.80
2022-10-15T17:36:58.191Z,16.70
2022-10-15T17:39:25.880Z,16.70
2022-10-15T17:41:53.602Z,16.70
2022-10-15T17:44:21.304Z,16.70
2022-10-15T17:49:21.575Z,16.60
2022-10-15T17:51:51.455Z,16.60
2022-10-15T17:54:19.536Z,16.50
2022-10-15T17:56:48.546Z,16.50
2022-10-15T17:59:16.251Z,16.50
2022-10-15T18:02:00.741Z,16.50
2022-10-15T18:04:28.996Z,16.50
2022-10-15T18:06:58.296Z,16.50
2022-10-15T18:09:26.429Z,16.50
2022-10-15T18:11:54.238Z,16.50
2022-10-15T18:14:22.007Z,16.50
2022-10-15T18:16:49.826Z,16.40
2022-10-15T18:19:17.535Z,16.50
2022-10-15T18:21:48.624Z,16.50
2022-10-15T18:24:21.367Z,16.60
2022-10-15T18:26:49.583Z,16.60
2022-10-15T18:29:17.294Z,16.60
2022-10-15T18:31:45.008Z,16.70
2022-10-15T18:34:12.691Z,16.60
2022-10-15T18:36:42.339Z,16.60
2022-10-15T18:39:10.067Z,16.50
2022-10-15T18:41:40.125Z,16.50
2022-10-15T18:44:09.025Z,16.50
2022-10-15T18:46:38.085Z,16.40
2022-10-15T18:49:05.747Z,16.50
2022-10-15T18:51:33.425Z,16.40
2022-10-15T18:54:01.409Z,16.40
2022-10-15T18:56:29.560Z,16.50
2022-10-15T18:58:58.580Z,16.50
2022-10-15T19:01:27.635Z,16.50
2022-10-15T19:03:56.095Z,16.50
2022-10-15T19:06:24.856Z,16.60
2022-10-15T19:08:53.320Z,16.60
2022-10-15T19:11:21.206Z,16.60
2022-10-15T19:13:48.971Z,16.70
2022-10-15T19:16:18.009Z,16.70
2022-10-15T19:18:45.703Z,16.70
2022-10-15T19:21:13.489Z,16.70
2022-10-15T19:23:41.295Z,16.70
2022-10-15T19:26:09.364Z,16.70
2022-10-15T19:28:37.210Z,16.70
2022-10-15T19:31:05.786Z,16.60
2022-10-15T19:33:35.056Z,16.50
2022-10-15T19:36:03.233Z,16.50
2022-10-15T19:38:31.047Z,16.50
2022-10-15T19:41:02.730Z,16.50
2022-10-15T19:43:30.589Z,16.50
2022-10-15T19:46:03.362Z,16.40
2022-10-15T19:48:31.187Z,16.40
2022-10-15T19:51:01.638Z,16.40
2022-10-15T19:53:29.945Z,16.40
2022-10-15T19:55:58.934Z,16.50
2022-10-15T19:58:26.681Z,16.50
2022-10-15T20:00:54.819Z,16.40
2022-10-15T20:03:23.253Z,16.40
2022-10-15T20:05:51.022Z,16.40
2022-10-15T20:08:20.076Z,16.40
2022-10-15T20:10:48.671Z,16.40
2022-10-15T20:13:16.550Z,16.40
2022-10-15T20:15:44.649Z,16.30
2022-10-15T20:18:12.771Z,16.30
2022-10-15T20:20:41.575Z,16.30
2022-10-15T20:23:09.321Z,16.30
2022-10-15T20:25:39.008Z,16.30
2022-10-15T20:28:06.872Z,16.30
2022-10-15T20:30:34.571Z,16.30
2022-10-15T20:33:02.267Z,16.30
2022-10-15T20:35:29.953Z,16.30
2022-10-15T20:37:57.610Z,16.20
2022-10-15T20:40:25.311Z,16.20
2022-10-15T20:42:54.367Z,16.20
2022-10-15T20:45:22.249Z,16.20
2022-10-15T20:47:51.759Z,16.20
2022-10-15T20:50:20.888Z,16.20
2022-10-15T20:52:49.003Z,16.20
2022-10-15T20:55:16.853Z,16.10
2022-10-15T20:57:44.760Z,16.10
2022-10-15T21:00:14.540Z,16.10
2022-10-15T21:02:42.602Z,16.10
2022-10-15T21:05:10.697Z,16.10
2022-10-15T21:07:38.395Z,16.10
2022-10-15T21:10:06.555Z,16.10
2022-10-15T21:12:34.219Z,16.10
2022-10-15T21:15:02.009Z,16.10
2022-10-15T21:17:31.080Z,16.10
2022-10-15T21:19:58.751Z,16.00
2022-10-15T21:22:26.426Z,15.90
2022-10-15T21:24:54.166Z,15.90
2022-10-15T21:27:21.857Z,15.90
2022-10-15T21:29:50.126Z,15.90
2022-10-15T21:32:18.031Z,15.80
2022-10-15T21:34:47.059Z,15.80
2022-10-15T21:37:14.739Z,15.80
2022-10-15T21:39:42.436Z,15.70
2022-10-15T21:42:10.106Z,15.70
2022-10-15T21:44:37.772Z,15.70
2022-10-15T21:47:05.566Z,15.60
2022-10-15T21:49:34.058Z,15.60
2022-10-15T21:52:03.284Z,15.60
2022-10-15T21:54:30.997Z,15.50
2022-10-15T21:56:58.664Z,15.50
2022-10-15T21:59:26.398Z,15.50
2022-10-15T22:01:54.176Z,15.40
2022-10-15T22:04:21.930Z,15.30
2022-10-15T22:06:49.607Z,15.30
2022-10-15T22:09:18.671Z,15.30
2022-10-15T22:11:46.336Z,15.20
2022-10-15T22:14:14.644Z,15.20
2022-10-15T22:16:42.774Z,15.20
2022-10-15T22:19:11.992Z,15.20
2022-10-15T22:21:39.982Z,15.20
2022-10-15T22:24:09.021Z,15.20
2022-10-15T22:26:39.655Z,15.20
2022-10-15T22:29:08.406Z,15.20
2022-10-15T22:31:36.098Z,15.10
2022-10-15T22:34:03.791Z,15.10
2022-10-15T22:36:31.837Z,15.10
2022-10-15T22:39:01.468Z,15.10
2022-10-15T22:41:29.802Z,15.10
2022-10-15T22:43:59.935Z,15.10
2022-10-15T22:46:27.720Z,15.00
2022-10-15T22:48:55.625Z,15.10
2022-10-15T22:51:23.434Z,15.10
2022-10-15T22:53:54.818Z,15.10
2022-10-15T22:56:22.479Z,15.10
2022-10-15T22:58:50.231Z,15.10
2022-10-15T23:01:20.096Z,15.10
2022-10-15T23:03:48.810Z,15.20
2022-10-15T23:06:17.123Z,15.30
2022-10-15T23:08:45.205Z,15.20
2022-10-15T23:11:14.455Z,15.20
2022-10-15T23:13:42.626Z,15.20
2022-10-15T23:16:12.758Z,15.20
2022-10-15T23:18:41.998Z,15.20
2022-10-15T23:21:12.643Z,15.20
2022-10-15T23:23:40.320Z,15.10
2022-10-15T23:26:08.259Z,15.20
2022-10-15T23:28:35.965Z,15.20
2022-10-15T23:31:03.686Z,15.20
2022-10-15T23:33:31.396Z,15.30
2022-10-15T23:36:01.816Z,15.30
2022-10-15T23:38:29.821Z,15.40
2022-10-15T23:41:01.458Z,15.40
2022-10-15T23:43:29.270Z,15.40
2022-10-15T23:45:57.299Z,15.50
2022-10-15T23:48:24.988Z,15.50
2022-10-15T23:50:52.768Z,15.50
2022-10-15T23:53:21.847Z,15.50
2022-10-15T23:55:49.652Z,15.50
2022-10-15T23:58:17.365Z,15.50
